createdAt,value
2022-08-03T00:01:53.066Z,26.25
2022-08-03T00:04:33.990Z,26.20
2022-08-03T00:07:03.348Z,26.18
2022-08-03T00:09:35.847Z,26.26
2022-08-03T00:12:05.184Z,26.47
2022-08-03T00:14:42.281Z,26.46
2022-08-03T00:17:12.371Z,29.78
2022-08-03T00:19:49.270Z,27.89
2022-08-03T00:22:18.182Z,26.86
2022-08-03T00:24:49.026Z,26.34
2022-08-03T00:27:17.524Z,26.40
2022-08-03T00:30:00.176Z,26.32
2022-08-03T00:32:30.211Z,26.92
2022-08-03T00:35:16.359Z,27.28
2022-08-03T00:37:54.256Z,27.43
2022-08-03T00:40:23.085Z,26.42
2022-08-03T00:42:58.302Z,26.33
2022-08-03T00:45:28.562Z,26.20
2022-08-03T00:47:59.499Z,26.14
2022-08-03T00:50:38.580Z,26.35
2022-08-03T00:53:12.104Z,26.14
2022-08-03T00:55:41.684Z,25.87
2022-08-03T00:58:13.087Z,25.96
2022-08-03T01:00:42.027Z,25.73
2022-08-03T01:03:14.637Z,25.69
2022-08-03T01:06:13.397Z,25.94
2022-08-03T01:08:49.078Z,25.84
2022-08-03T01:11:27.133Z,26.73
2022-08-03T01:14:18.397Z,26.90
2022-08-03T01:16:57.057Z,27.28
2022-08-03T01:19:42.320Z,27.21
2022-08-03T01:22:38.349Z,26.27
2022-08-03T01:25:15.414Z,26.80
2022-08-03T01:27:58.884Z,26.77
2022-08-03T01:30:36.504Z,26.87
2022-08-03T01:33:08.125Z,25.84
2022-08-03T01:35:48.386Z,26.24
2022-08-03T01:38:25.644Z,26.31
2022-08-03T01:41:00.428Z,26.72
2022-08-03T01:44:28.687Z,26.18
2022-08-03T01:46:29.383Z,26.35
2022-08-03T01:49:09.399Z,26.35
2022-08-03T01:52:03.476Z,26.42
2022-08-03T01:54:37.248Z,25.67
2022-08-03T01:57:09.887Z,26.52
2022-08-03T02:02:34.606Z,26.27
2022-08-03T02:05:11.783Z,25.85
2022-08-03T02:07:43.127Z,25.22
2022-08-03T02:10:17.117Z,25.20
2022-08-03T02:13:10.706Z,25.71
2022-08-03T02:15:42.391Z,25.84
2022-08-03T02:18:19.033Z,25.37
2022-08-03T02:20:49.704Z,25.13
2022-08-03T02:23:19.856Z,24.98
2022-08-03T02:25:57.211Z,25.63
2022-08-03T02:28:40.360Z,24.93
2022-08-03T02:31:14.904Z,24.98
2022-08-03T02:33:55.144Z,27.97
2022-08-03T02:40:43.339Z,24.66
2022-08-03T02:43:12.859Z,25.21
2022-08-03T02:45:48.929Z,24.60
2022-08-03T02:48:25.598Z,24.96
2022-08-03T02:51:04.606Z,24.99
2022-08-03T02:53:35.827Z,25.10
2022-08-03T02:56:07.557Z,25.29
2022-08-03T02:58:39.029Z,25.20
2022-08-03T03:01:09.625Z,24.70
2022-08-03T03:03:44.682Z,25.05
2022-08-03T03:06:20.316Z,25.19
2022-08-03T03:08:57.894Z,25.13
2022-08-03T03:11:31.261Z,25.02
2022-08-03T03:14:01.053Z,24.75
2022-08-03T03:16:33.497Z,24.38
2022-08-03T03:19:03.882Z,24.76
2022-08-03T03:21:39.080Z,27.47
2022-08-03T03:24:10.371Z,25.25
2022-08-03T03:26:42.501Z,24.90
2022-08-03T03:29:10.962Z,24.50
2022-08-03T03:31:39.973Z,24.88
2022-08-03T03:34:08.446Z,24.92
2022-08-03T03:36:39.104Z,25.41
2022-08-03T03:39:15.676Z,25.34
2022-08-03T03:41:44.961Z,25.29
2022-08-03T03:44:14.558Z,25.63
2022-08-03T03:46:43.461Z,24.98
2022-08-03T03:49:12.264Z,25.41
2022-08-03T03:51:42.759Z,25.09
2022-08-03T03:54:12.683Z,25.12
2022-08-03T03:56:41.655Z,25.80
2022-08-03T03:59:10.795Z,24.96
2022-08-03T04:01:41.766Z,24.99
2022-08-03T04:04:35.523Z,24.75
2022-08-03T04:07:24.791Z,25.46
2022-08-03T04:10:14.493Z,25.54
2022-08-03T04:12:50.484Z,25.67
2022-08-03T04:15:23.885Z,25.71
2022-08-03T04:17:55.695Z,25.45
2022-08-03T04:20:29.757Z,25.42
2022-08-03T04:23:02.288Z,25.36
2022-08-03T04:25:36.293Z,26.53
2022-08-03T04:28:30.854Z,25.37
2022-08-03T04:30:58.534Z,25.44
2022-08-03T04:33:29.697Z,25.60
2022-08-03T04:36:04.382Z,25.55
2022-08-03T04:38:40.012Z,25.44
2022-08-03T04:41:11.179Z,25.65
2022-08-03T04:43:42.972Z,25.58
2022-08-03T04:46:14.742Z,25.89
2022-08-03T04:48:44.904Z,25.63
2022-08-03T04:51:16.752Z,25.80
2022-08-03T04:53:47.220Z,25.39
2022-08-03T04:56:16.128Z,25.57
2022-08-03T04:58:44.712Z,25.48
2022-08-03T05:01:12.924Z,25.56
2022-08-03T05:03:42.526Z,25.64
2022-08-03T05:06:11.795Z,25.79
2022-08-03T05:08:45.908Z,25.80
2022-08-03T05:11:21.003Z,25.66
2022-08-03T05:13:50.802Z,25.59
2022-08-03T05:16:20.092Z,25.87
2022-08-03T05:18:49.795Z,26.07
2022-08-03T05:21:19.796Z,26.15
2022-08-03T05:23:49.706Z,26.35
2022-08-03T05:26:20.248Z,26.40
2022-08-03T05:28:51.332Z,26.35
2022-08-03T05:31:21.611Z,26.63
2022-08-03T05:33:50.512Z,26.66
2022-08-03T05:36:18.776Z,26.47
2022-08-03T05:38:47.552Z,26.58
2022-08-03T05:41:21.289Z,26.52
2022-08-03T05:43:56.444Z,27.53
2022-08-03T05:46:25.845Z,27.54
2022-08-03T05:48:58.220Z,27.32
2022-08-03T05:51:26.644Z,27.43
2022-08-03T05:53:54.771Z,27.69
2022-08-03T05:56:27.002Z,27.72
2022-08-03T05:59:16.302Z,27.67
2022-08-03T06:01:49.853Z,27.70
2022-08-03T06:04:18.518Z,27.87
2022-08-03T06:06:46.732Z,28.10
2022-08-03T06:09:18.559Z,27.93
2022-08-03T06:11:50.378Z,28.14
2022-08-03T06:14:26.344Z,28.33
2022-08-03T06:16:54.763Z,28.44
2022-08-03T06:19:26.005Z,28.37
2022-08-03T06:21:54.371Z,28.68
2022-08-03T06:24:25.039Z,29.43
2022-08-03T06:26:59.014Z,28.87
2022-08-03T06:32:17.470Z,28.85
2022-08-03T06:37:30.536Z,28.96
2022-08-03T06:39:59.731Z,29.24
2022-08-03T06:42:36.413Z,28.91
2022-08-03T06:45:19.401Z,29.10
2022-08-03T06:47:48.121Z,29.14
2022-08-03T06:50:25.998Z,29.23
2022-08-03T06:53:06.427Z,29.20
2022-08-03T06:55:42.272Z,28.87
2022-08-03T06:58:22.161Z,29.06
2022-08-03T07:00:54.534Z,29.28
2022-08-03T07:03:25.059Z,29.30
2022-08-03T07:05:53.719Z,29.33
2022-08-03T07:08:33.623Z,29.41
2022-08-03T07:11:03.063Z,32.60
2022-08-03T07:13:34.918Z,29.43
2022-08-03T07:16:06.461Z,29.52
2022-08-03T07:18:35.094Z,29.36
2022-08-03T07:21:03.977Z,29.65
2022-08-03T07:23:35.037Z,30.28
2022-08-03T07:26:04.228Z,29.43
2022-08-03T07:28:36.530Z,29.63
2022-08-03T07:31:12.769Z,29.40
2022-08-03T07:39:31.529Z,30.32
2022-08-03T07:42:09.763Z,30.39
2022-08-03T07:44:50.893Z,30.45
2022-08-03T07:47:38.575Z,30.64
2022-08-03T07:50:10.306Z,30.34
2022-08-03T08:02:22.316Z,31.18
2022-08-03T08:11:09.683Z,30.74
2022-08-03T08:20:31.745Z,31.73
2022-08-03T08:23:03.510Z,31.79
2022-08-03T08:25:43.737Z,31.89
2022-08-03T08:28:32.650Z,31.89
2022-08-03T08:31:12.504Z,32.05
2022-08-03T08:40:25.481Z,32.45
2022-08-03T08:46:01.062Z,33.00
2022-08-03T08:52:01.151Z,33.17
2022-08-03T08:54:38.234Z,33.40
2022-08-03T08:57:40.513Z,33.54
2022-08-03T09:00:16.489Z,33.20
2022-08-03T09:02:47.637Z,33.97
2022-08-03T09:05:36.238Z,33.37
2022-08-03T09:08:15.191Z,33.49
2022-08-03T09:16:56.487Z,34.56
2022-08-03T09:23:14.027Z,33.99
2022-08-03T09:33:02.193Z,34.82
2022-08-03T09:38:28.243Z,34.48
2022-08-03T09:41:00.266Z,33.94
2022-08-03T09:43:59.622Z,33.99
2022-08-03T09:46:57.337Z,34.15
2022-08-03T09:49:33.210Z,34.76
2022-08-03T09:52:33.646Z,34.89
2022-08-03T09:56:34.313Z,34.88
2022-08-03T09:58:54.005Z,34.72
2022-08-03T10:01:34.530Z,34.77
2022-08-03T10:13:48.120Z,36.32
2022-08-03T10:32:40.407Z,36.12
2022-08-03T10:35:21.569Z,36.77
2022-08-03T10:44:55.963Z,36.60
2022-08-03T10:48:56.347Z,36.78
2022-08-03T10:55:03.546Z,36.82
2022-08-03T10:57:58.921Z,37.27
2022-08-03T11:00:53.639Z,37.46
2022-08-03T11:03:23.977Z,37.11
2022-08-03T11:05:55.182Z,37.01
2022-08-03T11:11:43.165Z,37.10
2022-08-03T11:14:22.893Z,37.21
2022-08-03T11:26:15.885Z,38.06
2022-08-03T11:31:56.840Z,37.21
2022-08-03T11:34:29.951Z,37.27
2022-08-03T11:40:42.421Z,37.30
2022-08-03T11:43:48.534Z,37.65
2022-08-03T11:46:41.776Z,37.65
2022-08-03T11:51:59.209Z,37.31
2022-08-03T11:59:00.903Z,37.82
2022-08-03T12:03:42.260Z,38.25
2022-08-03T12:06:20.142Z,38.01
2022-08-03T12:08:50.752Z,38.12
2022-08-03T12:11:20.887Z,38.27
2022-08-03T12:14:26.826Z,38.80
2022-08-03T12:16:52.147Z,38.81
2022-08-03T12:19:36.750Z,38.66
2022-08-03T12:25:02.737Z,38.99
2022-08-03T12:30:24.417Z,39.05
2022-08-03T12:32:58.806Z,38.63
2022-08-03T12:35:31.683Z,38.19
2022-08-03T12:38:06.021Z,38.04
2022-08-03T12:40:41.664Z,38.63
2022-08-03T12:49:03.619Z,39.00
2022-08-03T12:51:36.898Z,39.01
2022-08-03T12:54:09.588Z,39.13
2022-08-03T12:59:41.447Z,39.68
2022-08-03T13:02:26.294Z,39.64
2022-08-03T13:04:58.558Z,39.94
2022-08-03T13:07:31.852Z,40.13
2022-08-03T13:12:36.893Z,40.30
2022-08-03T13:15:07.349Z,40.35
2022-08-03T13:20:18.476Z,40.23
2022-08-03T13:22:52.876Z,40.34
2022-08-03T13:33:13.108Z,39.99
2022-08-03T13:38:30.017Z,40.23
2022-08-03T13:41:04.844Z,40.55
2022-08-03T13:43:34.197Z,40.69
2022-08-03T13:46:06.869Z,40.55
2022-08-03T13:48:40.489Z,40.49
2022-08-03T13:53:49.928Z,40.45
2022-08-03T13:56:20.083Z,40.55
2022-08-03T13:58:53.384Z,40.32
2022-08-03T14:01:53.471Z,40.66
2022-08-03T14:04:21.789Z,40.95
2022-08-03T14:06:51.234Z,41.15
2022-08-03T14:09:26.383Z,40.88
2022-08-03T14:12:08.379Z,40.60
2022-08-03T14:14:37.883Z,40.48
2022-08-03T14:17:06.290Z,40.98
2022-08-03T14:19:40.580Z,40.11
2022-08-03T14:22:26.129Z,39.84
2022-08-03T14:30:00.853Z,39.99
2022-08-03T14:32:29.695Z,39.93
2022-08-03T14:35:00.955Z,39.69
2022-08-03T14:37:34.044Z,39.46
2022-08-03T14:42:36.594Z,39.22
2022-08-03T14:45:09.291Z,39.03
2022-08-03T14:50:36.454Z,38.75
2022-08-03T14:52:58.811Z,38.64
2022-08-03T14:55:38.629Z,38.50
2022-08-03T14:58:22.426Z,38.35
2022-08-03T15:00:55.341Z,38.24
2022-08-03T15:03:25.624Z,38.66
2022-08-03T15:05:57.185Z,39.08
2022-08-03T15:08:28.026Z,39.30
2022-08-03T15:10:59.835Z,39.39
2022-08-03T15:13:29.637Z,39.33
2022-08-03T15:15:58.679Z,39.59
2022-08-03T15:18:29.908Z,39.74
2022-08-03T15:20:58.274Z,40.11
2022-08-03T15:26:30.757Z,40.14
2022-08-03T15:31:24.928Z,40.18
2022-08-03T15:33:53.875Z,40.42
2022-08-03T15:36:21.878Z,40.47
2022-08-03T15:38:50.503Z,40.52
2022-08-03T15:41:19.716Z,40.45
2022-08-03T15:43:48.426Z,40.52
2022-08-03T15:48:48.109Z,40.55
2022-08-03T15:51:19.927Z,40.60
2022-08-03T15:53:51.831Z,40.65
2022-08-03T15:56:20.417Z,40.66
2022-08-03T15:59:03.990Z,40.50
2022-08-03T16:01:42.576Z,40.66
2022-08-03T16:04:11.373Z,40.51
2022-08-03T16:06:39.405Z,40.43
2022-08-03T16:09:23.138Z,40.59
2022-08-03T16:12:03.134Z,40.73
2022-08-03T16:14:44.890Z,40.67
2022-08-03T16:19:49.971Z,40.62
2022-08-03T16:24:47.254Z,40.91
2022-08-03T16:27:56.773Z,41.05
2022-08-03T16:30:17.032Z,41.10
2022-08-03T16:35:25.065Z,41.20
2022-08-03T16:37:56.873Z,41.11
2022-08-03T16:43:18.931Z,42.29
2022-08-03T16:45:53.701Z,41.52
2022-08-03T16:48:26.852Z,41.44
2022-08-03T16:50:58.933Z,41.37
2022-08-03T16:54:05.787Z,41.33
2022-08-03T16:56:33.779Z,41.24
2022-08-03T16:59:09.368Z,41.19
2022-08-03T17:01:41.757Z,41.36
2022-08-03T17:04:17.197Z,41.10
2022-08-03T17:06:49.408Z,40.99
2022-08-03T17:11:52.109Z,42.04
2022-08-03T17:14:28.319Z,41.06
2022-08-03T17:17:01.878Z,40.82
2022-08-03T17:19:35.983Z,40.54
2022-08-03T17:22:07.720Z,40.43
2022-08-03T17:24:44.089Z,40.47
2022-08-03T17:28:50.362Z,40.47
2022-08-03T17:30:13.410Z,40.43
2022-08-03T17:32:57.119Z,40.25
2022-08-03T17:35:38.707Z,40.19
2022-08-03T17:38:13.804Z,40.16
2022-08-03T17:40:52.163Z,40.39
2022-08-03T17:44:14.169Z,40.09
2022-08-03T17:46:26.305Z,40.45
2022-08-03T17:48:59.417Z,39.97
2022-08-03T17:51:32.803Z,40.18
2022-08-03T17:54:18.143Z,39.71
2022-08-03T17:57:22.451Z,39.78
2022-08-03T18:00:27.163Z,39.41
2022-08-03T18:03:21.785Z,39.29
2022-08-03T18:06:10.956Z,38.94
2022-08-03T18:08:43.808Z,38.65
2022-08-03T18:11:22.829Z,38.36
2022-08-03T18:14:09.918Z,38.21
2022-08-03T18:16:52.479Z,37.93
2022-08-03T18:20:02.792Z,37.67
2022-08-03T18:25:09.364Z,37.35
2022-08-03T18:27:47.560Z,36.87
2022-08-03T18:30:16.955Z,36.67
2022-08-03T18:33:00.491Z,38.30
2022-08-03T18:35:53.499Z,36.35
2022-08-03T18:38:23.813Z,36.44
2022-08-03T18:40:53.062Z,35.90
2022-08-03T18:43:47.395Z,36.26
2022-08-03T18:46:32.812Z,35.88
2022-08-03T18:49:12.195Z,35.78
2022-08-03T18:51:43.082Z,35.92
2022-08-03T18:54:51.748Z,35.73
2022-08-03T18:57:19.697Z,36.64
2022-08-03T19:00:00.861Z,36.61
2022-08-03T19:02:39.346Z,35.45
2022-08-03T19:05:12.640Z,34.72
2022-08-03T19:07:58.040Z,34.69
2022-08-03T19:10:35.306Z,34.41
2022-08-03T19:13:14.006Z,34.25
2022-08-03T19:15:51.463Z,34.22
2022-08-03T19:18:23.573Z,33.97
2022-08-03T19:20:54.759Z,34.50
2022-08-03T19:23:30.783Z,34.53
2022-08-03T19:26:04.524Z,34.70
2022-08-03T19:28:58.314Z,34.83
2022-08-03T19:31:31.005Z,34.23
2022-08-03T19:34:01.259Z,34.62
2022-08-03T19:36:35.509Z,34.86
2022-08-03T19:39:15.055Z,34.70
2022-08-03T19:41:51.404Z,33.70
2022-08-03T19:44:30.247Z,33.72
2022-08-03T19:47:07.142Z,33.39
2022-08-03T19:50:04.584Z,33.27
2022-08-03T19:52:31.461Z,33.35
2022-08-03T19:55:06.969Z,33.25
2022-08-03T19:57:37.977Z,33.91
2022-08-03T20:00:13.978Z,33.72
2022-08-03T20:02:46.149Z,33.63
2022-08-03T20:05:18.190Z,33.38
2022-08-03T20:07:48.683Z,33.16
2022-08-03T20:10:19.181Z,33.05
2022-08-03T20:12:49.450Z,32.80
2022-08-03T20:15:30.925Z,32.79
2022-08-03T20:18:02.527Z,32.59
2022-08-03T20:20:33.836Z,32.46
2022-08-03T20:23:11.513Z,32.87
2022-08-03T20:25:57.024Z,32.73
2022-08-03T20:28:32.816Z,32.63
2022-08-03T20:31:05.534Z,32.71
2022-08-03T20:33:46.395Z,32.39
2022-08-03T20:36:18.657Z,32.64
2022-08-03T20:38:49.049Z,32.29
2022-08-03T20:41:20.020Z,32.38
2022-08-03T20:43:51.072Z,32.79
2022-08-03T20:46:31.293Z,32.82
2022-08-03T20:49:06.988Z,32.81
2022-08-03T20:51:49.114Z,32.55
2022-08-03T20:54:28.756Z,32.73
2022-08-03T20:57:00.230Z,34.93
2022-08-03T20:59:36.928Z,33.05
2022-08-03T21:02:19.736Z,31.82
2022-08-03T21:05:08.431Z,31.88
2022-08-03T21:07:45.560Z,31.55
2022-08-03T21:10:16.680Z,31.17
2022-08-03T21:12:52.181Z,31.26
2022-08-03T21:16:04.760Z,31.03
2022-08-03T21:18:15.243Z,31.15
2022-08-03T21:20:50.310Z,30.98
2022-08-03T21:23:35.167Z,30.86
2022-08-03T21:26:12.032Z,30.83
2022-08-03T21:28:41.481Z,30.64
2022-08-03T21:31:11.182Z,30.78
2022-08-03T21:33:39.884Z,30.80
2022-08-03T21:36:14.440Z,30.75
2022-08-03T21:38:55.806Z,30.65
2022-08-03T21:41:26.009Z,30.69
2022-08-03T21:43:54.307Z,30.47
2022-08-03T21:46:23.511Z,30.58
2022-08-03T21:50:07.443Z,30.57
2022-08-03T21:51:59.106Z,30.43
2022-08-03T21:54:35.714Z,30.53
2022-08-03T21:57:06.014Z,30.54
2022-08-03T21:59:40.739Z,30.49
2022-08-03T22:02:12.242Z,30.44
2022-08-03T22:04:56.037Z,30.43
2022-08-03T22:07:31.963Z,30.64
2022-08-03T22:10:04.956Z,30.38
2022-08-03T22:12:34.354Z,30.04
2022-08-03T22:15:04.854Z,30.04
2022-08-03T22:17:55.384Z,30.42
2022-08-03T22:20:25.016Z,30.93
2022-08-03T22:23:04.554Z,31.17
2022-08-03T22:25:36.596Z,30.35
2022-08-03T22:28:10.487Z,29.94
2022-08-03T22:30:40.153Z,30.14
2022-08-03T22:33:13.026Z,29.87
2022-08-03T22:35:48.271Z,29.65
2022-08-03T22:38:19.668Z,29.70
2022-08-03T22:40:51.453Z,30.45
2022-08-03T22:43:25.166Z,29.82
2022-08-03T22:46:09.831Z,29.73
2022-08-03T22:48:41.926Z,29.70
2022-08-03T22:51:11.944Z,29.57
2022-08-03T22:53:45.485Z,30.27
2022-08-03T22:56:15.346Z,29.99
2022-08-03T22:58:44.244Z,29.67
2022-08-03T23:01:16.680Z,30.36
2022-08-03T23:03:59.853Z,29.65
2022-08-03T23:06:43.354Z,29.79
2022-08-03T23:09:16.520Z,29.60
2022-08-03T23:11:46.213Z,29.81
2022-08-03T23:14:17.456Z,29.24
2022-08-03T23:16:48.695Z,29.34
2022-08-03T23:19:25.584Z,29.20
2022-08-03T23:22:02.279Z,29.03
2022-08-03T23:24:37.094Z,29.14
2022-08-03T23:27:06.248Z,29.22
2022-08-03T23:29:37.742Z,29.04
2022-08-03T23:32:07.368Z,29.33
2022-08-03T23:34:57.653Z,29.63
2022-08-03T23:38:04.402Z,29.68
2022-08-03T23:40:31.399Z,29.65
2022-08-03T23:43:03.798Z,29.33
2022-08-03T23:45:36.385Z,29.32
2022-08-03T23:48:06.428Z,29.15
2022-08-03T23:50:46.045Z,29.16
2022-08-03T23:53:21.973Z,30.13
2022-08-03T23:56:12.724Z,29.29
2022-08-03T23:58:56.046Z,29.17
